ADDS METAR Data

Data at: 0255 UTC 21 Jun 2018

METAR for:KPHX (Phoenix/Sky Harbor, AZ, US)
Text:KPHX 210251Z 25008KT 10SM CLR 39/M03 A2974 RMK AO2 SLP048 T03941028 53002
Temperature: 39.4°C (103°F)
Dewpoint: -2.8°C ( 27°F) [RH = 7%]
Pressure (altimeter):29.74 inches Hg (1007.2 mb) [Sea level pressure: 1004.8 mb]
Winds:from the WSW (250 degrees) at 9 MPH (8 knots; 4.1 m/s)
Visibility:10 or more sm (16+ km)
Ceiling:at least 12,000 feet AGL
Clouds:sky clear below 12,000 feet AGL